createdAt,value
2022-08-23T00:02:29.733Z,1013.10
2022-08-23T00:07:29.893Z,1013.06
2022-08-23T00:12:30.489Z,1013.02
2022-08-23T00:17:34.472Z,1013.02
2022-08-23T00:22:29.591Z,1013.14
2022-08-23T00:27:30.720Z,1013.10
2022-08-23T00:32:32.872Z,1013.03
2022-08-23T00:37:31.946Z,1013.01
2022-08-23T00:42:33.110Z,1012.97
2022-08-23T00:47:34.214Z,1013.01
2022-08-23T00:52:36.315Z,1013.06
2022-08-23T00:57:36.658Z,1013.08
2022-08-23T01:02:35.828Z,1013.10
2022-08-23T01:07:37.942Z,1013.12
2022-08-23T01:12:38.083Z,1013.12
2022-08-23T01:17:38.175Z,1013.12
2022-08-23T01:22:39.319Z,1013.27
2022-08-23T01:27:39.423Z,1013.34
2022-08-23T01:32:38.514Z,1013.38
2022-08-23T01:37:39.722Z,1013.38
2022-08-23T01:44:00.790Z,1013.33
2022-08-23T01:47:42.951Z,1013.35
2022-08-23T01:52:46.877Z,1013.35
2022-08-23T01:57:42.024Z,1013.43
2022-08-23T02:02:43.926Z,1013.46
2022-08-23T02:07:43.118Z,1013.53
2022-08-23T02:12:45.246Z,1013.56
2022-08-23T02:17:45.396Z,1013.63
2022-08-23T02:22:44.484Z,1013.60
2022-08-23T02:27:45.588Z,1013.59
2022-08-23T02:32:46.706Z,1013.63
2022-08-23T02:37:47.311Z,1013.68
2022-08-23T02:42:49.518Z,1013.74
2022-08-23T02:47:49.660Z,1013.82
2022-08-23T02:52:48.780Z,1013.81
2022-08-23T02:57:49.953Z,1013.83
2022-08-23T03:02:52.391Z,1013.78
2022-08-23T03:07:51.530Z,1013.78
2022-08-23T03:12:53.729Z,1013.87
2022-08-23T03:17:53.883Z,1013.92
2022-08-23T03:22:54.885Z,1013.93
2022-08-23T03:27:54.196Z,1013.88
2022-08-23T03:32:56.297Z,1013.91
2022-08-23T03:37:56.575Z,1013.96
2022-08-23T03:42:55.695Z,1014.08
2022-08-23T03:47:57.879Z,1014.12
2022-08-23T03:52:57.032Z,1014.09
2022-08-23T03:57:58.191Z,1014.18
2022-08-23T04:02:59.397Z,1014.20
2022-08-23T04:08:02.694Z,1014.18
2022-08-23T04:13:02.823Z,1014.25
2022-08-23T04:18:03.030Z,1014.27
2022-08-23T04:23:02.149Z,1014.32
2022-08-23T04:28:03.642Z,1014.34
2022-08-23T04:33:03.985Z,1014.38
2022-08-23T04:38:18.258Z,1014.40
2022-08-23T04:43:05.215Z,1014.43
2022-08-23T04:48:06.317Z,1014.46
2022-08-23T04:53:06.242Z,1014.51
2022-08-23T04:58:07.431Z,1014.48
2022-08-23T05:03:08.540Z,1014.46
2022-08-23T05:08:09.709Z,1014.49
2022-08-23T05:13:10.864Z,1014.51
2022-08-23T05:18:11.935Z,1014.61
2022-08-23T05:23:13.025Z,1014.59
2022-08-23T05:28:14.126Z,1014.63
2022-08-23T05:33:13.961Z,1014.61
2022-08-23T05:38:20.548Z,1014.61
2022-08-23T05:43:15.912Z,1014.71
2022-08-23T05:48:18.363Z,1014.64
2022-08-23T05:53:18.565Z,1014.76
2022-08-23T05:58:18.700Z,1014.78
2022-08-23T06:03:17.953Z,1014.80
2022-08-23T06:08:19.045Z,1014.91
2022-08-23T06:13:21.195Z,1014.95
2022-08-23T06:18:21.389Z,1014.82
2022-08-23T06:23:20.497Z,1014.87
2022-08-23T06:28:25.641Z,1014.86
2022-08-23T06:33:25.005Z,1014.88
2022-08-23T06:38:24.091Z,1014.88
2022-08-23T06:43:26.196Z,1014.99
2022-08-23T06:48:26.308Z,1015.01
2022-08-23T06:53:25.454Z,1014.99
2022-08-23T06:58:25.947Z,1014.96
2022-08-23T07:03:28.066Z,1015.01
2022-08-23T07:08:27.183Z,1015.06
2022-08-23T07:13:28.390Z,1015.09
2022-08-23T07:18:29.759Z,1015.10
2022-08-23T07:23:30.914Z,1015.14
2022-08-23T07:28:33.048Z,1015.10
2022-08-23T07:33:32.280Z,1015.15
2022-08-23T07:38:32.295Z,1015.17
2022-08-23T07:43:34.341Z,1015.25
2022-08-23T07:48:53.111Z,1015.30
2022-08-23T07:53:37.653Z,1015.27
2022-08-23T07:58:35.408Z,1015.31
2022-08-23T08:03:36.653Z,1015.33
2022-08-23T08:08:38.807Z,1015.37
2022-08-23T08:13:38.927Z,1015.45
2022-08-23T08:18:38.037Z,1015.39
2022-08-23T08:23:39.225Z,1015.41
2022-08-23T08:28:40.475Z,1015.38
2022-08-23T08:33:41.619Z,1015.32
2022-08-23T08:38:50.334Z,1015.40
2022-08-23T08:43:42.713Z,1015.39
2022-08-23T08:48:43.856Z,1015.35
2022-08-23T08:53:45.972Z,1015.29
2022-08-23T08:58:46.131Z,1015.29
2022-08-23T09:03:46.371Z,1015.27
2022-08-23T09:08:45.232Z,1015.28
2022-08-23T09:13:46.587Z,1015.29
2022-08-23T09:18:47.730Z,1015.30
2022-08-23T09:23:48.945Z,1015.28
2022-08-23T09:28:48.898Z,1015.26
2022-08-23T09:33:51.049Z,1015.24
2022-08-23T09:38:49.179Z,1015.24
2022-08-23T09:43:50.358Z,1015.29
2022-08-23T09:48:50.507Z,1015.29
2022-08-23T09:53:52.666Z,1015.26
2022-08-23T09:58:51.796Z,1015.29
2022-08-23T10:03:52.916Z,1015.27
2022-08-23T10:08:55.074Z,1015.15
2022-08-23T10:13:53.248Z,1015.12
2022-08-23T10:18:54.834Z,1015.14
2022-08-23T10:23:57.953Z,1015.05
2022-08-23T10:28:57.098Z,1015.04
2022-08-23T10:33:59.213Z,1015.03
2022-08-23T10:39:00.357Z,1014.96
2022-08-23T10:43:59.476Z,1014.82
2022-08-23T10:49:00.561Z,1014.83
2022-08-23T10:54:02.689Z,1014.87
2022-08-23T10:59:02.884Z,1014.84
2022-08-23T11:04:02.991Z,1014.82
2022-08-23T11:09:02.153Z,1014.74
2022-08-23T11:14:04.278Z,1014.78
2022-08-23T11:19:03.494Z,1014.72
2022-08-23T11:24:04.733Z,1014.72
2022-08-23T11:29:06.855Z,1014.62
2022-08-23T11:34:06.034Z,1014.61
2022-08-23T11:39:07.096Z,1014.62
2022-08-23T11:44:09.356Z,1014.56
2022-08-23T11:49:08.555Z,1014.52
2022-08-23T11:54:09.649Z,1014.50
2022-08-23T11:59:12.730Z,1014.48
2022-08-23T12:04:11.979Z,1014.39
2022-08-23T12:09:15.123Z,1014.23
2022-08-23T12:14:15.261Z,1014.22
2022-08-23T12:19:15.401Z,1014.15
2022-08-23T12:24:15.733Z,1014.20
2022-08-23T12:29:16.846Z,1014.12
2022-08-23T12:34:17.990Z,1014.09
2022-08-23T12:39:18.079Z,1014.03
2022-08-23T12:44:19.176Z,1014.02
2022-08-23T12:49:20.280Z,1014.01
2022-08-23T12:54:22.521Z,1013.95
2022-08-23T12:59:21.781Z,1013.93
2022-08-23T13:04:23.001Z,1013.84
2022-08-23T13:09:25.167Z,1013.84
2022-08-23T13:14:25.302Z,1013.85
2022-08-23T13:19:24.431Z,1013.77
2022-08-23T13:24:31.414Z,1013.76
2022-08-23T13:29:27.555Z,1013.71
2022-08-23T13:34:26.695Z,1013.68
2022-08-23T13:39:27.937Z,1013.61
2022-08-23T13:44:29.123Z,1013.65
2022-08-23T13:49:31.905Z,1013.64
2022-08-23T13:54:31.112Z,1013.65
2022-08-23T13:59:32.276Z,1013.66
2022-08-23T14:04:34.401Z,1013.62
2022-08-23T14:09:34.504Z,1013.57
2022-08-23T14:14:33.670Z,1013.59
2022-08-23T14:24:35.075Z,1013.61
2022-08-23T14:29:36.192Z,1013.54
2022-08-23T14:34:39.330Z,1013.59
2022-08-23T14:39:38.792Z,1013.52
2022-08-23T14:44:42.121Z,1013.58
2022-08-23T14:49:43.230Z,1013.65
2022-08-23T14:54:42.446Z,1013.60
2022-08-23T14:59:44.573Z,1013.58
2022-08-23T15:04:43.083Z,1013.63
2022-08-23T15:09:45.323Z,1013.63
2022-08-23T15:14:44.795Z,1013.58
2022-08-23T15:19:43.956Z,1013.57
2022-08-23T15:24:45.044Z,1013.48
2022-08-23T15:29:47.434Z,1013.48
2022-08-23T15:34:47.549Z,1013.51
2022-08-23T15:39:46.734Z,1013.39
2022-08-23T15:44:47.844Z,1013.36
2022-08-23T15:49:49.967Z,1013.39
2022-08-23T15:54:50.137Z,1013.41
2022-08-23T15:59:51.244Z,1013.37
2022-08-23T16:04:51.357Z,1013.36
2022-08-23T16:09:50.653Z,1013.34
2022-08-23T16:14:51.888Z,1013.34
2022-08-23T16:19:53.058Z,1013.42
2022-08-23T16:24:53.833Z,1013.26
2022-08-23T16:29:55.004Z,1013.30
2022-08-23T16:34:56.130Z,1013.34
2022-08-23T16:39:57.379Z,1013.35
2022-08-23T16:44:58.538Z,1013.32
2022-08-23T16:49:59.716Z,1013.37
2022-08-23T16:55:01.983Z,1013.41
2022-08-23T17:00:02.442Z,1013.42
2022-08-23T17:05:01.585Z,1013.43
2022-08-23T17:10:02.700Z,1013.44
2022-08-23T17:15:04.914Z,1013.51
2022-08-23T17:20:04.162Z,1013.54
2022-08-23T17:25:03.961Z,1013.58
2022-08-23T17:30:05.139Z,1013.58
2022-08-23T17:35:04.615Z,1013.57
2022-08-23T17:40:05.761Z,1013.60
2022-08-23T17:45:07.562Z,1013.75
2022-08-23T17:50:07.790Z,1013.81
2022-08-23T17:55:08.831Z,1013.84
2022-08-23T18:00:07.281Z,1013.95
2022-08-23T18:05:09.563Z,1013.95
2022-08-23T18:10:09.748Z,1014.00
2022-08-23T18:15:08.902Z,1014.10
2022-08-23T18:20:11.306Z,1014.16
2022-08-23T18:25:10.715Z,1014.26
2022-08-23T18:30:12.109Z,1014.39
2022-08-23T18:35:12.458Z,1014.49
2022-08-23T18:40:13.754Z,1014.54
2022-08-23T18:45:15.127Z,1014.52
2022-08-23T18:50:17.419Z,1014.64
2022-08-23T18:55:16.786Z,1014.78
2022-08-23T19:00:19.163Z,1014.78
2022-08-23T19:05:18.583Z,1014.93
2022-08-23T19:10:20.963Z,1014.95
2022-08-23T19:15:21.299Z,1015.00
2022-08-23T19:20:24.032Z,1015.07
2022-08-23T19:25:22.487Z,1015.12
2022-08-23T19:30:23.874Z,1015.14
2022-08-23T19:35:24.940Z,1015.19
2022-08-23T19:40:24.375Z,1015.20
2022-08-23T19:45:24.617Z,1015.33
2022-08-23T19:50:24.384Z,1015.38
2022-08-23T19:55:24.792Z,1015.40
2022-08-23T20:00:25.170Z,1015.44
2022-08-23T20:05:25.569Z,1015.48
2022-08-23T20:10:24.848Z,1015.51
2022-08-23T20:15:26.118Z,1015.57
2022-08-23T20:20:28.502Z,1015.57
2022-08-23T20:25:29.770Z,1015.64
2022-08-23T20:30:30.019Z,1015.67
2022-08-23T20:35:29.294Z,1015.66
2022-08-23T20:40:31.921Z,1015.68
2022-08-23T20:45:32.084Z,1015.69
2022-08-23T20:50:31.239Z,1015.67
2022-08-23T20:55:33.354Z,1015.64
2022-08-23T21:00:33.500Z,1015.69
2022-08-23T21:05:32.609Z,1015.75
2022-08-23T21:10:34.710Z,1015.77
2022-08-23T21:15:35.855Z,1015.76
2022-08-23T21:20:34.995Z,1015.74
2022-08-23T21:25:38.137Z,1015.72
2022-08-23T21:30:39.281Z,1015.79
2022-08-23T21:35:38.941Z,1015.83
2022-08-23T21:40:39.183Z,1015.85
2022-08-23T21:45:41.553Z,1015.91
2022-08-23T21:50:38.336Z,1015.91
2022-08-23T21:55:40.475Z,1015.96
2022-08-23T22:00:40.956Z,1015.96
2022-08-23T22:05:40.111Z,1015.93
2022-08-23T22:10:41.269Z,1015.91
2022-08-23T22:15:40.290Z,1015.92
2022-08-23T22:20:41.534Z,1015.91
2022-08-23T22:25:42.762Z,1015.86
2022-08-23T22:30:43.974Z,1015.88
2022-08-23T22:35:48.921Z,1015.87
2022-08-23T22:40:47.388Z,1015.83
2022-08-23T22:45:46.631Z,1015.86
2022-08-23T22:50:48.323Z,1015.84
2022-08-23T22:55:48.684Z,1015.93
2022-08-23T23:00:47.794Z,1015.92
2022-08-23T23:05:49.369Z,1015.86
2022-08-23T23:10:48.488Z,1015.80
2022-08-23T23:15:50.755Z,1015.75
2022-08-23T23:20:49.968Z,1015.77
2022-08-23T23:25:51.123Z,1015.71
2022-08-23T23:30:52.302Z,1015.75
2022-08-23T23:35:53.526Z,1015.74
2022-08-23T23:40:56.626Z,1015.71
2022-08-23T23:45:55.833Z,1015.70
2022-08-23T23:50:57.069Z,1015.66
2022-08-23T23:55:58.299Z,1015.73
